メインページ
METAR-TAF:

METAR-TAF

空港 :

グラスゴー, モンタナ州, アメリカ合衆国

緯度: 48-12-50N, 経度: 106-37-17W, 海抜: 699m

現時点の気象観測

当レポートは36分前の04:04(UTC)に作成
南/南東の風 3kt
気温 -1°C
湿度 80%
気圧 1016 hPa
視程: 16.1km
高度1000ftの曇り

METAR: KGGW 270404Z AUTO 15003KT 10SM OVC010 M01/M04 A2999 RMK AO2 T10111039

時間: 21:40 (04:40 UTC)

予報

当レポートは42分前の03:58(UTC)に作成
予報は27日の 04時(UTC)から 27日の 24時(UTC)まで有効
変向風 3kt
視程: 10km
高度900ftの曇り
27日の 0700時(UTC)から
変向風 4kt
視程: 10km
高度700ftの曇り
27日の 08時(UTC)から 27日の 09時(UTC)まで一時的に
視程: 9.7km
27日の 1500時(UTC)から
変向風 5kt
視程: 10km
高度1200ftの曇り
27日の 1700時(UTC)から
変向風 5kt
視程: 10km
高度600ftの曇り

TAF: KGGW 270358Z 2704/2724 VRB03KT P6SM OVC009 FM270700 VRB04KT P6SM OVC007 TEMPO 2708/2709 6SM BR FM271500 VRB05KT P6SM OVC012 FM271700 VRB05KT P6SM OVC006

4,000以上の空港の気象観測と天気予報(METAR報とTAF報)

利用可能な観測所は地図上に黄色い丸と赤い丸で示す。

丸の上にカーソルを重ねると観測所名を参照できる。

次にクリックすると気象観測と天気予報を参照できる。

マップの切り替え:黒色「×」印の緑ボタンをクリックして拡大、「-」印の緑ボタンをクリックして縮小、緑色の三角印をクリックして隣りの地図に切り替え


METAR-TAF: